Ana Sayfa
METAR-TAF:

METAR-TAF

Havaalanları :

Niamey, Nijer

Enlem: 13-29N, Boylam: 002-10E, yükseklik: 223 m

Güncel hava durumu gözlemi

Rapor saat 08:00 UTC de 1 saat ve 9 dakika önce yapıldı.
Rüzgar güneybatıdan 7 kt
Sıcaklık 31°C
Nem 55%
Basınç 1012 hPa
Görüş mesafesi 10 km veya daha fazla
1500 m altında bulut yok ve kümülonimbus yok

METAR: DRRN 170800Z 22007KT CAVOK 31/21 Q1012 NOSIG

Saat: 10:09 (09:09 UTC)

Tahmin

Rapor saat 05:00 UTC de 4 saat ve 9 dakika önce yapıldı.
Ayın 17'si saat 06 UTC'den ayın 18'si saat 12 UTC'ye kadar geçerli Tahmin
Rüzgar batıdan 10 kt
Görüş mesafesi 10 km veya daha fazla
1500 m altında bulut yok ve kümülonimbus yok
Olasılık 30% :
Geçici
ayın 17'si saat 16 UTC'den ayın 17'si saat 20 UTC'ye kadar
3300 ft yükseklikte az bulutlu, Kümülonimbus.
gök gürültülü fırtına

TAF: DRRN 170500Z 1706/1812 26010KT CAVOK PROB30 TEMPO 1716/1720 TS FEW033CB

4.000'den fazla havaalanı için hava durumu gözlemleri ve tahminleri (METAR ve TAF raporları).

Kullanılabilir istasyonlar harita üzerinde sarı ve kırmızı noktalarla gösterilir.

İstasyonun adını görmek için fareyi noktanın üzerinde gezdirin.

Sonrasında hava gözlem ve tahminlerini görmek için tıklayın.

Haritayı değiştirmek için: yaklaştırmak için siyah artı işaretli yeşil düğmeye ve uzaklaştırmak için de eksi işaretli düğmeye hızla tıklayın; bitişik haritalar için yeşil okları kullanın.


METAR-TAF: